Time;durP1;ratioP1;P1;durP2;ratioP2;P2;SDS_P1;SDS_P2;PMS_P1;PMS_P2;Temp;Humidity;BMP_temperature;BMP_pressure;BME280_temperature;BME280_humidity;BME280_pressure;Samples;Min_cycle;Max_cycle;Signal;HPM_P1;HPM_P2
2021/06/18 00:02:19;;;;;;;5.63;4.05;;;;;;;19.90;57.41;96029.75;5002423;28;20091;-79
2021/06/18 00:04:45;;;;;;;7.78;3.47;;;;;;;19.85;57.70;96025.09;5007262;28;20489;-78
2021/06/18 00:07:10;;;;;;;5.50;3.58;;;;;;;19.75;58.19;96027.44;5023768;28;20080;-78
2021/06/18 00:09:37;;;;;;;5.53;3.63;;;;;;;19.75;58.27;96028.28;4996290;28;20037;-78
2021/06/18 00:12:06;;;;;;;6.38;3.83;;;;;;;19.68;58.45;96026.69;5018745;28;20032;-78
2021/06/18 00:14:32;;;;;;;8.20;3.75;;;;;;;19.65;58.63;96019.13;4994558;28;20049;-79
2021/06/18 00:16:58;;;;;;;5.93;3.45;;;;;;;19.69;58.46;96020.34;5009741;28;20033;-79
2021/06/18 00:19:24;;;;;;;6.40;3.13;;;;;;;19.67;58.30;96011.75;5008302;28;20095;-79
2021/06/18 00:21:49;;;;;;;5.47;3.35;;;;;;;19.66;58.83;96004.78;4991805;28;20117;-78
2021/06/18 00:24:15;;;;;;;8.82;3.78;;;;;;;19.62;58.81;96006.25;4989958;28;20033;-78
2021/06/18 00:26:41;;;;;;;5.65;3.08;;;;;;;19.44;59.95;96002.50;5010384;28;20044;-78
2021/06/18 00:29:07;;;;;;;6.25;4.03;;;;;;;19.26;60.61;96000.63;4992369;28;20044;-78
2021/06/18 00:31:33;;;;;;;5.85;3.80;;;;;;;19.15;61.07;96005.84;5010295;28;20022;-79
2021/06/18 00:33:58;;;;;;;4.50;3.63;;;;;;;19.08;60.98;96003.25;5009165;28;20034;-79
2021/06/18 00:36:24;;;;;;;4.85;3.50;;;;;;;18.92;61.96;96003.81;4994610;28;20044;-79
2021/06/18 00:38:50;;;;;;;6.88;3.85;;;;;;;18.81;62.26;96003.47;4986292;28;20057;-78
2021/06/18 00:41:16;;;;;;;6.63;4.20;;;;;;;18.76;62.40;96005.16;4994435;28;20108;-78
2021/06/18 00:43:43;;;;;;;7.53;3.67;;;;;;;18.52;63.09;96004.06;4993058;28;20116;-78
2021/06/18 00:46:10;;;;;;;7.85;4.20;;;;;;;18.47;63.60;96007.34;4987037;28;20108;-79
2021/06/18 00:48:36;;;;;;;8.43;3.85;;;;;;;18.34;63.64;96010.06;4998071;28;20032;-79
2021/06/18 00:51:03;;;;;;;6.50;3.97;;;;;;;18.24;63.97;96012.38;4988745;28;20551;-78
2021/06/18 00:53:29;;;;;;;8.43;4.15;;;;;;;18.31;63.61;96007.88;5037434;28;20024;-79
2021/06/18 00:55:55;;;;;;;5.68;4.00;;;;;;;18.21;63.78;95996.84;5007824;28;20048;-79
2021/06/18 00:58:21;;;;;;;5.95;3.60;;;;;;;18.14;63.97;96003.03;4991873;28;20155;-79
2021/06/18 01:00:47;;;;;;;6.70;4.13;;;;;;;18.04;64.83;96007.16;5005526;28;20025;-80
2021/06/18 01:03:13;;;;;;;9.25;4.35;;;;;;;17.94;65.35;96012.09;4998524;28;20029;-79
2021/06/18 01:05:41;;;;;;;6.07;4.32;;;;;;;17.88;65.28;96013.78;4992109;28;20079;-78
2021/06/18 01:08:44;;;;;;;11.38;4.13;;;;;;;17.72;65.86;96014.22;5009019;28;20368;-79
2021/06/18 01:11:40;;;;;;;9.05;4.13;;;;;;;17.56;66.46;96005.66;5005633;28;20045;-78
2021/06/18 01:14:27;;;;;;;4.90;3.60;;;;;;;17.68;66.10;96001.31;5008562;28;20045;-78
2021/06/18 01:17:18;;;;;;;6.50;3.67;;;;;;;17.73;65.89;96005.19;5007037;28;20048;-78
2021/06/18 01:19:53;;;;;;;6.68;3.97;;;;;;;17.62;66.33;96004.81;4991726;28;20037;-78
2021/06/18 01:22:22;;;;;;;6.35;4.45;;;;;;;17.57;66.96;96001.97;5008448;28;20037;-78
2021/06/18 01:24:57;;;;;;;10.67;4.10;;;;;;;17.49;67.11;96004.03;5010701;28;20426;-78
2021/06/18 01:27:32;;;;;;;7.18;3.88;;;;;;;17.53;67.18;96010.56;4998948;28;20564;-78
2021/06/18 01:30:00;;;;;;;6.78;3.90;;;;;;;17.49;67.48;96014.69;4994424;28;20067;-78
2021/06/18 01:32:51;;;;;;;5.75;4.00;;;;;;;17.50;67.63;96016.28;5005152;28;20033;-78
2021/06/18 01:35:18;;;;;;;7.32;4.53;;;;;;;17.43;67.88;96017.13;4995863;28;20037;-78
2021/06/18 01:37:47;;;;;;;6.85;4.90;;;;;;;17.35;68.31;96008.56;5003262;28;20078;-80
2021/06/18 01:40:16;;;;;;;6.33;3.87;;;;;;;17.32;68.62;96012.44;5005342;28;20038;-78
2021/06/18 01:42:45;;;;;;;8.27;4.68;;;;;;;17.37;68.94;96009.16;4993365;28;20082;-78
2021/06/18 01:45:14;;;;;;;6.70;4.60;;;;;;;17.31;69.14;96004.69;4999668;28;20041;-79
2021/06/18 01:47:43;;;;;;;6.70;4.43;;;;;;;17.33;69.38;96005.28;5010396;28;20071;-78
2021/06/18 01:50:12;;;;;;;9.63;5.00;;;;;;;17.25;69.53;96001.00;5008999;28;20065;-79
2021/06/18 01:52:41;;;;;;;9.20;4.50;;;;;;;17.26;70.16;95999.16;5001452;28;20040;-78
2021/06/18 01:55:08;;;;;;;9.90;5.10;;;;;;;17.20;70.24;95996.31;5032366;28;20033;-79
2021/06/18 01:57:37;;;;;;;5.97;4.73;;;;;;;17.20;70.21;95996.31;5014691;28;20060;-78
2021/06/18 02:00:06;;;;;;;8.33;5.70;;;;;;;17.19;70.52;96000.00;4993729;28;20061;-78
2021/06/18 02:02:38;;;;;;;6.30;4.83;;;;;;;17.30;70.23;95997.72;5017143;28;20041;-78
2021/06/18 02:05:07;;;;;;;9.03;5.10;;;;;;;17.35;69.51;95993.44;4988855;28;20402;-78
2021/06/18 02:07:36;;;;;;;7.43;5.30;;;;;;;17.47;68.95;96001.59;5023216;28;20380;-78
2021/06/18 02:10:06;;;;;;;8.13;5.15;;;;;;;17.54;69.32;95996.25;4995200;28;20025;-78
2021/06/18 02:12:33;;;;;;;7.85;4.85;;;;;;;17.55;68.87;95998.72;5001979;28;20403;-78
2021/06/18 02:14:59;;;;;;;10.43;5.45;;;;;;;17.57;68.63;95998.47;5007297;28;20049;-78
2021/06/18 02:17:27;;;;;;;7.13;5.43;;;;;;;17.53;68.87;95999.94;5011942;28;20036;-78
2021/06/18 02:19:55;;;;;;;8.52;5.07;;;;;;;17.54;69.04;96004.22;5009238;28;20022;-78
2021/06/18 02:22:22;;;;;;;7.72;4.80;;;;;;;17.55;68.56;96006.69;5010465;28;20038;-79
2021/06/18 02:24:49;;;;;;;7.72;5.55;;;;;;;17.56;68.45;96004.84;4999105;28;20026;-78
2021/06/18 02:27:15;;;;;;;8.20;5.75;;;;;;;17.55;68.31;96003.22;5012146;28;20026;-78
2021/06/18 02:29:43;;;;;;;9.23;5.35;;;;;;;17.52;69.02;96003.63;5006359;28;20033;-78
2021/06/18 02:32:12;;;;;;;7.55;5.18;;;;;;;17.44;69.22;96012.66;5014131;28;20498;-78
2021/06/18 02:34:38;;;;;;;9.13;5.30;;;;;;;17.38;69.18;96013.47;5010130;28;20041;-77
2021/06/18 02:37:06;;;;;;;10.87;5.13;;;;;;;17.39;69.44;96009.78;4982652;28;20033;-78
2021/06/18 02:39:32;;;;;;;7.95;5.60;;;;;;;17.29;69.64;96012.84;5017086;28;20427;-79
2021/06/18 02:41:58;;;;;;;8.27;5.40;;;;;;;17.29;69.86;96020.03;5022887;28;20044;-78
2021/06/18 02:44:24;;;;;;;7.43;5.13;;;;;;;17.22;70.19;96021.88;4992371;28;20426;-78
2021/06/18 02:46:52;;;;;;;8.43;6.00;;;;;;;17.18;70.22;96030.25;5000583;28;20037;-78
2021/06/18 02:49:23;;;;;;;7.13;5.18;;;;;;;17.15;70.13;96030.66;5017767;28;20017;-78
2021/06/18 02:52:40;;;;;;;8.27;5.43;;;;;;;17.16;70.13;96028.81;4982038;28;20118;-78
2021/06/18 02:55:31;;;;;;;8.38;5.25;;;;;;;17.19;69.69;96026.56;4964336;28;20045;-78
2021/06/18 02:58:12;;;;;;;7.40;5.20;;;;;;;17.23;70.18;96029.63;4987429;28;20554;-79
2021/06/18 03:00:42;;;;;;;9.20;5.25;;;;;;;17.20;70.55;96030.88;5017774;28;20114;-78
2021/06/18 03:03:10;;;;;;;8.02;5.32;;;;;;;17.00;71.23;96037.19;5012712;28;20029;-78
2021/06/18 03:05:39;;;;;;;8.70;6.03;;;;;;;16.84;72.69;96033.94;4998418;28;20029;-78
2021/06/18 03:08:09;;;;;;;9.15;6.03;;;;;;;16.60;73.79;96035.31;5010784;28;20025;-77
2021/06/18 03:10:40;;;;;;;7.20;5.32;;;;;;;16.49;74.18;96039.34;5015783;28;20029;-78
2021/06/18 03:13:40;;;;;;;8.35;5.38;;;;;;;16.45;74.72;96045.25;5028514;28;20419;-78
2021/06/18 03:16:08;;;;;;;8.85;5.78;;;;;;;16.46;74.28;96039.78;4978972;28;20049;-78
2021/06/18 03:18:36;;;;;;;10.33;5.53;;;;;;;16.48;74.59;96028.94;4990176;28;20033;-78
2021/06/18 03:21:03;;;;;;;8.47;5.57;;;;;;;16.64;73.93;96020.59;5030383;28;20519;-80
2021/06/18 03:23:31;;;;;;;6.83;4.73;;;;;;;16.65;73.46;96024.88;4992712;28;20021;-78
2021/06/18 03:25:59;;;;;;;7.03;5.83;;;;;;;16.63;73.45;96021.63;5008981;28;20129;-80
2021/06/18 03:28:26;;;;;;;13.30;5.60;;;;;;;16.37;74.44;96034.84;5004194;28;20442;-78
2021/06/18 03:30:52;;;;;;;8.80;5.20;;;;;;;16.54;73.95;96029.97;4989577;28;20030;-78
2021/06/18 03:33:21;;;;;;;6.83;5.13;;;;;;;16.60;73.15;96030.00;5015068;28;20037;-77
2021/06/18 03:35:48;;;;;;;7.37;5.50;;;;;;;16.65;73.31;96024.88;4990724;28;20125;-78
2021/06/18 03:38:15;;;;;;;7.10;5.60;;;;;;;16.62;73.46;96030.59;5013404;28;20025;-79
2021/06/18 03:40:42;;;;;;;9.13;5.10;;;;;;;16.61;72.84;96023.66;5009372;28;20029;-80
2021/06/18 03:43:09;;;;;;;7.60;5.23;;;;;;;16.50;73.29;96026.91;4996280;28;20025;-78
2021/06/18 03:45:38;;;;;;;7.53;5.10;;;;;;;16.47;73.17;96032.63;5007824;28;20052;-78
2021/06/18 03:48:05;;;;;;;10.23;7.27;;;;;;;16.50;73.49;96025.06;5023980;28;20029;-78
2021/06/18 03:50:33;;;;;;;8.57;5.40;;;;;;;16.33;74.87;96026.47;5009876;28;20028;-78
2021/06/18 03:53:00;;;;;;;9.93;6.03;;;;;;;16.34;74.29;96028.09;4991549;28;20683;-78
2021/06/18 03:55:25;;;;;;;9.00;5.47;;;;;;;16.43;73.18;96020.75;4985434;28;20024;-78
2021/06/18 03:57:52;;;;;;;8.23;5.37;;;;;;;16.42;73.58;96019.13;5010104;28;20399;-79
2021/06/18 04:00:18;;;;;;;8.03;5.70;;;;;;;16.48;72.87;96024.44;5010249;28;20045;-78
2021/06/18 04:02:45;;;;;;;6.00;5.10;;;;;;;16.52;72.29;96030.16;5007329;28;20026;-79
2021/06/18 04:05:17;;;;;;;8.00;5.43;;;;;;;16.47;72.99;96033.44;5000805;28;20044;-78
2021/06/18 04:07:46;;;;;;;9.67;6.07;;;;;;;16.43;73.00;96029.56;5030507;28;20040;-78
2021/06/18 04:10:14;;;;;;;9.00;5.90;;;;;;;16.49;72.95;96033.22;5000747;28;20024;-79
2021/06/18 04:12:41;;;;;;;11.70;6.47;;;;;;;16.64;71.88;96033.06;5003424;28;20833;-78
2021/06/18 04:15:07;;;;;;;13.10;8.37;;;;;;;16.71;72.40;96036.53;5006401;28;20428;-78
2021/06/18 04:17:33;;;;;;;18.07;9.87;;;;;;;16.73;72.08;96032.66;5017050;28;20029;-79
2021/06/18 04:20:00;;;;;;;10.93;7.67;;;;;;;16.82;71.79;96035.97;5018508;28;20104;-78
2021/06/18 04:22:32;;;;;;;35.60;18.33;;;;;;;16.79;71.64;96035.56;5032823;28;20056;-78
2021/06/18 04:25:05;;;;;;;16.00;9.63;;;;;;;16.89;71.54;96028.81;5089911;27;20141;-79
2021/06/18 04:27:33;;;;;;;8.27;6.23;;;;;;;16.76;73.75;96038.59;5058801;28;20055;-80
2021/06/18 04:29:58;;;;;;;9.63;6.07;;;;;;;16.75;74.65;96036.97;5065864;28;20029;-78
2021/06/18 04:32:24;;;;;;;13.13;6.17;;;;;;;16.52;75.25;96040.78;5062131;28;20033;-78
2021/06/18 04:34:50;;;;;;;7.90;6.70;;;;;;;16.45;76.47;96039.97;5061320;28;20047;-78
2021/06/18 04:37:16;;;;;;;14.57;11.07;;;;;;;16.40;76.94;96039.75;5083983;28;20633;-79
2021/06/18 04:39:41;;;;;;;11.57;8.07;;;;;;;16.49;76.44;96042.00;5060056;28;20564;-78
2021/06/18 04:42:07;;;;;;;10.80;7.00;;;;;;;16.59;76.03;96041.63;5058146;28;20575;-81
2021/06/18 04:44:33;;;;;;;9.27;7.43;;;;;;;16.73;74.84;96048.59;5046005;28;20029;-77
2021/06/18 04:46:59;;;;;;;9.63;6.73;;;;;;;16.92;73.75;96046.19;5045806;28;20052;-78
2021/06/18 04:49:25;;;;;;;9.80;6.47;;;;;;;17.00;73.16;96048.66;5057798;28;20025;-78
2021/06/18 04:51:51;;;;;;;8.40;5.73;;;;;;;17.16;72.06;96052.72;5040967;28;20044;-78
2021/06/18 04:54:16;;;;;;;7.60;6.15;;;;;;;17.37;71.19;96054.34;5059434;28;20024;-78
2021/06/18 04:56:42;;;;;;;7.47;5.75;;;;;;;17.57;70.01;96065.81;5060408;28;20056;-78
2021/06/18 04:59:08;;;;;;;10.40;6.10;;;;;;;17.87;68.85;96065.34;5060170;28;20102;-79
2021/06/18 05:01:34;;;;;;;7.35;5.68;;;;;;;18.09;69.04;96101.28;5062079;28;20039;-77
2021/06/18 05:04:00;;;;;;;10.23;5.88;;;;;;;17.95;71.04;96089.06;5057837;28;20089;-78
2021/06/18 05:06:26;;;;;;;9.85;6.15;;;;;;;18.04;70.73;96086.97;5054948;28;20162;-78
2021/06/18 05:08:52;;;;;;;7.75;5.70;;;;;;;18.03;70.87;96093.34;5043785;28;20083;-78
2021/06/18 05:11:22;;;;;;;10.15;5.65;;;;;;;18.23;70.00;96085.28;5058270;28;20060;-78
2021/06/18 05:13:49;;;;;;;9.52;6.70;;;;;;;18.11;71.05;96077.97;5053718;28;20110;-78
2021/06/18 05:16:15;;;;;;;7.05;5.22;;;;;;;18.29;71.04;96074.63;5068879;28;20033;-78
2021/06/18 05:18:42;;;;;;;9.30;4.75;;;;;;;18.63;70.14;96069.94;5053173;28;20033;-78
2021/06/18 05:21:08;;;;;;;8.25;4.93;;;;;;;19.00;67.81;96068.28;5046860;28;20086;-81
2021/06/18 05:23:33;;;;;;;7.65;5.35;;;;;;;19.07;69.46;96063.72;5039541;28;20021;-78
2021/06/18 05:25:59;;;;;;;9.23;5.65;;;;;;;18.91;70.21;96066.09;5073512;28;20099;-79
2021/06/18 05:28:25;;;;;;;7.55;5.15;;;;;;;18.70;70.60;96065.38;5059200;28;20032;-79
2021/06/18 05:30:51;;;;;;;10.45;5.88;;;;;;;19.12;68.33;96062.28;5060481;28;20040;-78
2021/06/18 05:33:17;;;;;;;10.07;6.78;;;;;;;18.61;69.64;96062.19;5061538;28;20424;-78
2021/06/18 05:35:44;;;;;;;8.65;6.32;;;;;;;18.52;70.52;96066.09;5035066;28;20025;-78
2021/06/18 05:38:10;;;;;;;9.18;5.57;;;;;;;19.28;67.10;96056.38;5047401;28;20047;-78
2021/06/18 05:40:41;;;;;;;9.82;5.32;;;;;;;19.74;65.36;96055.97;5056241;28;20024;-78
2021/06/18 05:43:10;;;;;;;7.50;5.18;;;;;;;20.05;64.07;96064.06;5045914;28;20060;-77
2021/06/18 05:45:37;;;;;;;8.13;5.63;;;;;;;20.39;64.79;96071.47;5032031;28;20085;-78
2021/06/18 05:48:04;;;;;;;9.02;5.32;;;;;;;20.70;63.25;96077.69;5048045;28;20127;-77
2021/06/18 05:50:30;;;;;;;8.95;5.55;;;;;;;20.80;64.79;96077.94;5046250;28;20131;-78
2021/06/18 05:52:56;;;;;;;8.45;5.13;;;;;;;20.99;63.90;96078.69;5043099;28;20033;-79
2021/06/18 05:55:22;;;;;;;6.03;4.53;;;;;;;21.17;62.70;96085.84;5045973;28;20178;-80
2021/06/18 05:57:55;;;;;;;6.97;4.45;;;;;;;21.68;61.25;96075.56;5032065;28;20037;-79
2021/06/18 06:00:20;;;;;;;6.88;4.50;;;;;;;21.82;58.77;96075.09;5048119;28;20119;-79
2021/06/18 06:02:46;;;;;;;8.10;4.60;;;;;;;22.22;57.58;96071.69;5029846;28;20439;-78
2021/06/18 06:05:13;;;;;;;7.05;4.88;;;;;;;22.56;55.28;96067.25;5047408;28;20128;-79
2021/06/18 06:07:48;;;;;;;7.38;4.20;;;;;;;23.06;53.30;96074.66;5045916;28;20497;-79
2021/06/18 06:10:14;;;;;;;6.35;3.85;;;;;;;23.16;53.09;96071.31;5046377;28;20036;-78
2021/06/18 06:12:41;;;;;;;6.50;4.07;;;;;;;23.44;52.67;96086.56;5044050;28;20287;-78
2021/06/18 06:15:08;;;;;;;8.63;4.50;;;;;;;23.66;53.22;96075.88;5050533;28;20523;-78
2021/06/18 06:17:33;;;;;;;8.48;4.72;;;;;;;23.40;54.13;96079.22;5045728;28;20025;-77
2021/06/18 06:19:59;;;;;;;8.15;4.78;;;;;;;23.41;54.16;96078.19;5040467;28;20083;-78
2021/06/18 06:22:25;;;;;;;7.72;4.93;;;;;;;23.54;54.00;96088.59;5024536;28;20021;-78
2021/06/18 06:24:50;;;;;;;9.38;5.15;;;;;;;23.83;54.65;96101.94;5059204;28;20037;-79
2021/06/18 06:27:17;;;;;;;9.15;4.57;;;;;;;23.70;51.50;96092.34;5050130;28;20033;-77
2021/06/18 06:29:43;;;;;;;10.13;5.32;;;;;;;23.88;53.42;96094.78;5036845;28;20071;-79
2021/06/18 06:32:08;;;;;;;7.80;4.15;;;;;;;24.07;51.19;96087.22;5033717;28;20056;-78
2021/06/18 06:34:34;;;;;;;6.95;4.10;;;;;;;24.50;49.80;96077.59;5044731;28;20175;-78
2021/06/18 06:37:00;;;;;;;6.93;4.78;;;;;;;24.83;48.15;96070.44;5044438;28;20028;-79
2021/06/18 06:39:26;;;;;;;6.55;4.25;;;;;;;25.39;48.07;96068.28;5044397;28;20584;-78
2021/06/18 06:41:51;;;;;;;7.38;4.10;;;;;;;25.35;46.93;96069.84;5037723;28;20032;-78
2021/06/18 06:44:17;;;;;;;6.28;3.53;;;;;;;26.03;45.75;96087.06;5027583;28;20021;-79
2021/06/18 06:46:43;;;;;;;6.32;3.53;;;;;;;26.14;44.99;96081.72;5043123;28;20074;-79
2021/06/18 06:49:09;;;;;;;8.68;3.53;;;;;;;26.29;44.85;96089.88;5030389;28;20585;-78
2021/06/18 06:51:34;;;;;;;7.32;3.63;;;;;;;26.36;44.30;96078.84;5040940;28;20028;-81
2021/06/18 06:54:00;;;;;;;8.65;3.90;;;;;;;26.76;44.28;96081.75;5032701;28;20830;-79
2021/06/18 06:56:26;;;;;;;6.97;3.38;;;;;;;27.10;43.12;96080.47;5040925;28;20035;-79
2021/06/18 06:58:55;;;;;;;5.88;3.80;;;;;;;26.74;43.43;96081.19;5043899;28;20498;-79
2021/06/18 07:01:21;;;;;;;7.57;4.55;;;;;;;26.89;43.12;96077.72;5044619;28;20025;-78
2021/06/18 07:03:47;;;;;;;6.38;4.28;;;;;;;27.41;43.14;96074.03;5044570;28;20142;-79
2021/06/18 07:06:13;;;;;;;6.75;4.13;;;;;;;27.26;43.65;96079.41;5043545;28;20110;-79
2021/06/18 07:08:39;;;;;;;9.07;4.28;;;;;;;27.72;42.13;96080.22;5045946;28;20483;-78
2021/06/18 07:11:05;;;;;;;7.28;4.63;;;;;;;27.79;42.31;96084.56;5036633;28;20036;-78
2021/06/18 07:13:30;;;;;;;10.00;4.55;;;;;;;27.68;42.20;96081.06;5034805;28;20987;-79
2021/06/18 07:15:57;;;;;;;6.57;4.47;;;;;;;28.00;42.35;96079.94;5023664;28;20025;-78
2021/06/18 07:18:23;;;;;;;6.68;4.43;;;;;;;27.80;42.70;96081.63;5043169;28;20040;-79
2021/06/18 07:20:49;;;;;;;7.45;4.50;;;;;;;28.14;42.07;96083.72;5037085;28;20052;-79
2021/06/18 07:23:15;;;;;;;6.82;5.05;;;;;;;28.11;41.86;96079.66;5044619;28;20025;-79
2021/06/18 07:25:42;;;;;;;8.57;4.97;;;;;;;28.62;41.36;96078.69;5043474;28;20032;-79
2021/06/18 07:28:08;;;;;;;7.65;5.05;;;;;;;28.71;40.62;96077.03;5033467;28;20037;-79
2021/06/18 07:30:35;;;;;;;7.72;4.53;;;;;;;29.14;40.08;96071.91;5044947;28;20036;-79
2021/06/18 07:33:01;;;;;;;6.70;4.53;;;;;;;29.43;40.19;96076.59;5046164;28;20757;-80
2021/06/18 07:35:27;;;;;;;7.68;4.72;;;;;;;30.24;38.78;96075.03;5044868;28;20506;-79
2021/06/18 07:37:53;;;;;;;7.72;4.70;;;;;;;29.53;39.58;96074.59;5041431;28;20086;-79
2021/06/18 07:40:19;;;;;;;8.43;5.07;;;;;;;29.96;39.46;96079.41;5045157;28;20017;-80
2021/06/18 07:42:45;;;;;;;6.25;4.32;;;;;;;30.95;36.89;96081.50;5042579;28;20037;-79
2021/06/18 07:45:13;;;;;;;6.88;4.93;;;;;;;30.89;37.39;96082.69;5034054;28;20067;-80
2021/06/18 07:47:40;;;;;;;9.48;5.70;;;;;;;30.12;38.70;96080.06;5043466;28;20033;-79
2021/06/18 07:50:09;;;;;;;8.23;5.13;;;;;;;30.84;37.45;96072.69;5042939;28;20029;-80
2021/06/18 07:52:35;;;;;;;6.53;5.22;;;;;;;31.76;36.60;96067.78;5038029;28;20072;-79
2021/06/18 07:55:02;;;;;;;7.30;5.30;;;;;;;31.52;36.48;96063.28;5045671;28;20028;-79
2021/06/18 07:57:27;;;;;;;6.97;4.85;;;;;;;31.82;36.24;96070.09;5039563;28;20720;-80
2021/06/18 07:59:53;;;;;;;7.93;4.85;;;;;;;31.92;35.58;96071.88;5032948;28;20055;-80
2021/06/18 08:02:19;;;;;;;7.72;5.32;;;;;;;32.15;35.84;96075.53;5042894;28;20445;-79
2021/06/18 08:04:45;;;;;;;6.38;4.70;;;;;;;33.16;34.21;96066.38;5044524;28;20013;-80
2021/06/18 08:07:11;;;;;;;7.20;5.07;;;;;;;32.20;35.17;96071.91;5040874;28;20037;-80
2021/06/18 08:09:38;;;;;;;7.20;4.85;;;;;;;32.44;34.97;96074.47;5035701;28;20494;-79
2021/06/18 08:12:04;;;;;;;8.57;5.43;;;;;;;32.62;34.53;96077.06;5061187;28;20049;-80
2021/06/18 08:14:29;;;;;;;7.18;4.78;;;;;;;33.92;32.38;96068.38;5041589;28;20651;-80
2021/06/18 08:16:55;;;;;;;7.45;4.88;;;;;;;32.65;34.62;96063.97;5044088;28;20032;-80
2021/06/18 08:19:21;;;;;;;6.40;4.80;;;;;;;33.16;34.04;96068.31;5046409;28;20023;-80
2021/06/18 08:21:47;;;;;;;6.60;5.10;;;;;;;33.26;33.88;96063.41;5025887;28;20120;-80
2021/06/18 08:24:13;;;;;;;7.75;5.40;;;;;;;33.81;33.16;96059.66;5026148;28;20025;-79
2021/06/18 08:26:40;;;;;;;8.07;4.88;;;;;;;33.99;32.61;96066.00;5029149;28;20093;-80
2021/06/18 08:29:05;;;;;;;8.60;5.10;;;;;;;33.23;33.72;96064.03;5042175;28;20033;-80
2021/06/18 08:31:31;;;;;;;7.53;5.13;;;;;;;34.20;31.81;96061.63;5049269;28;20090;-80
2021/06/18 08:33:57;;;;;;;8.68;5.13;;;;;;;34.53;31.78;96060.47;5043766;28;20155;-80
2021/06/18 08:36:23;;;;;;;7.82;5.63;;;;;;;34.49;31.52;96066.53;5043810;28;20053;-80
2021/06/18 08:38:49;;;;;;;8.93;5.50;;;;;;;34.64;31.87;96064.50;5042675;28;20021;-80
2021/06/18 08:41:15;;;;;;;6.43;5.25;;;;;;;34.26;31.90;96056.84;5046127;28;20032;-80
2021/06/18 08:43:41;;;;;;;8.27;5.07;;;;;;;35.08;30.63;96055.31;5050274;28;20021;-80
2021/06/18 08:46:07;;;;;;;7.25;5.25;;;;;;;34.86;32.30;96060.88;5029457;28;20043;-80
2021/06/18 08:48:34;;;;;;;8.40;5.18;;;;;;;36.18;28.93;96052.25;5043873;28;20020;-80
2021/06/18 08:51:01;;;;;;;7.20;5.25;;;;;;;35.89;29.68;96053.78;5030778;28;20037;-80
2021/06/18 08:53:29;;;;;;;7.20;5.00;;;;;;;35.97;29.42;96060.34;5045117;28;20024;-80
2021/06/18 08:55:55;;;;;;;8.15;5.25;;;;;;;35.51;29.55;96059.13;5048509;28;20441;-80
2021/06/18 08:58:21;;;;;;;8.10;5.35;;;;;;;36.51;28.29;96066.16;5027940;28;20086;-80
2021/06/18 09:00:48;;;;;;;9.77;5.40;;;;;;;36.11;28.05;96066.44;5046405;28;20064;-80
2021/06/18 09:03:35;;;;;;;6.28;4.90;;;;;;;35.68;31.16;96069.28;5043416;28;20560;-79
2021/06/18 09:06:01;;;;;;;6.97;4.93;;;;;;;35.27;31.09;96065.91;5028604;28;20041;-80
2021/06/18 09:08:27;;;;;;;7.18;5.28;;;;;;;36.29;29.52;96070.75;5028525;28;20035;-81
2021/06/18 09:10:53;;;;;;;6.70;5.30;;;;;;;34.08;32.51;96074.28;5046916;28;20120;-80
2021/06/18 09:13:23;;;;;;;12.98;5.35;;;;;;;36.55;28.70;96067.91;5043554;28;20048;-79
2021/06/18 09:15:51;;;;;;;7.03;5.28;;;;;;;36.40;29.02;96070.38;5048051;28;20555;-80
2021/06/18 09:18:35;;;;;;;8.02;5.72;;;;;;;36.05;31.08;96067.75;5043656;28;20055;-80
2021/06/18 09:21:01;;;;;;;6.38;4.80;;;;;;;36.87;28.70;96070.28;5051894;28;20036;-80
2021/06/18 09:23:34;;;;;;;8.18;4.95;;;;;;;37.31;27.66;96062.56;5045167;28;20028;-79
2021/06/18 09:26:26;;;;;;;7.63;4.93;;;;;;;36.55;28.54;96076.13;5061380;28;20074;-82
2021/06/18 09:29:06;;;;;;;8.35;5.25;;;;;;;36.52;29.01;96065.00;5044717;28;20371;-80
2021/06/18 09:31:35;;;;;;;8.82;5.47;;;;;;;38.34;27.43;96068.16;5049345;28;20033;-80
2021/06/18 09:34:03;;;;;;;6.68;4.75;;;;;;;38.30;26.47;96067.22;5049034;28;20040;-81
2021/06/18 09:36:31;;;;;;;8.02;5.05;;;;;;;37.04;26.16;96073.75;5036026;28;20543;-81
2021/06/18 09:38:57;;;;;;;6.80;4.60;;;;;;;36.98;25.56;96072.31;5047527;28;20040;-80
2021/06/18 09:41:46;;;;;;;6.72;4.40;;;;;;;37.36;24.86;96060.44;5056490;28;20036;-81
2021/06/18 09:44:20;;;;;;;6.13;4.45;;;;;;;37.81;23.77;96064.38;5054107;28;20033;-80
2021/06/18 09:46:56;;;;;;;6.88;3.97;;;;;;;40.17;20.08;96055.09;5056684;28;20036;-80
2021/06/18 09:49:34;;;;;;;6.88;3.38;;;;;;;40.32;18.42;96051.56;5065992;28;20066;-80
2021/06/18 09:52:09;;;;;;;5.28;4.00;;;;;;;38.42;21.93;96057.09;5062452;28;20033;-81
2021/06/18 09:54:45;;;;;;;7.93;5.00;;;;;;;38.17;24.33;96056.25;5050129;28;20029;-81
2021/06/18 09:57:16;;;;;;;8.32;4.22;;;;;;;37.91;23.50;96058.50;5055629;28;20097;-81
2021/06/18 09:59:48;;;;;;;6.45;4.65;;;;;;;37.90;24.22;96051.38;5031702;28;20029;-81
2021/06/18 10:02:14;;;;;;;5.80;4.05;;;;;;;39.10;23.29;96056.47;5053473;28;20663;-81
2021/06/18 10:04:41;;;;;;;6.57;3.85;;;;;;;39.67;21.83;96057.28;5049585;28;20024;-81
2021/06/18 10:07:10;;;;;;;6.45;4.30;;;;;;;39.88;21.75;96059.06;5050193;28;20036;-80
2021/06/18 10:09:39;;;;;;;7.13;4.18;;;;;;;38.32;22.70;96056.72;5053310;28;20029;-80
2021/06/18 10:12:09;;;;;;;6.43;4.13;;;;;;;38.92;21.82;96060.63;5050587;28;20037;-80
2021/06/18 10:14:35;;;;;;;5.95;3.80;;;;;;;40.39;20.15;96046.22;5052282;28;20036;-81
2021/06/18 10:17:03;;;;;;;5.80;4.05;;;;;;;39.13;20.56;96055.75;5065924;28;20058;-81
2021/06/18 10:19:32;;;;;;;5.53;3.88;;;;;;;38.24;22.61;96055.69;5062545;28;20026;-81
2021/06/18 10:22:09;;;;;;;7.57;3.92;;;;;;;36.95;24.36;96050.22;5056798;28;20048;-81
2021/06/18 10:24:59;;;;;;;5.07;4.13;;;;;;;37.10;25.20;96040.66;5026249;28;20029;-81
2021/06/18 10:27:31;;;;;;;5.60;4.05;;;;;;;37.95;23.40;96048.44;5059514;28;20040;-81
2021/06/18 10:29:57;;;;;;;5.15;3.88;;;;;;;38.98;21.74;96045.50;5083111;28;20364;-81
2021/06/18 10:32:34;;;;;;;5.47;3.85;;;;;;;38.20;22.18;96047.34;5061396;28;20036;-79
2021/06/18 10:35:03;;;;;;;5.82;3.40;;;;;;;37.85;23.06;96049.63;5059149;28;20391;-81
2021/06/18 10:37:33;;;;;;;4.43;3.85;;;;;;;38.09;21.53;96040.66;5075299;28;20038;-81
2021/06/18 10:40:11;;;;;;;4.93;3.53;;;;;;;38.91;21.00;96042.53;5058209;28;20037;-81
2021/06/18 10:42:36;;;;;;;5.13;3.17;;;;;;;38.15;20.72;96042.06;5049948;28;20025;-81
2021/06/18 10:45:03;;;;;;;4.53;3.00;;;;;;;38.84;20.17;96045.06;5066861;28;20029;-80
2021/06/18 10:47:33;;;;;;;4.45;3.58;;;;;;;39.77;19.42;96039.50;5041896;28;20120;-81
2021/06/18 10:50:00;;;;;;;6.03;4.40;;;;;;;40.81;17.96;96042.88;5038020;28;20064;-80
2021/06/18 10:52:41;;;;;;;6.25;3.42;;;;;;;37.97;21.70;96040.66;5063397;28;20048;-78
2021/06/18 10:55:08;;;;;;;6.72;2.80;;;;;;;37.02;20.00;96034.09;5035943;28;20055;-79
2021/06/18 10:57:36;;;;;;;4.85;3.08;;;;;;;38.52;20.06;96036.59;5057512;28;20024;-79
2021/06/18 11:00:11;;;;;;;6.07;3.47;;;;;;;37.28;22.15;96034.66;5049898;28;20040;-80
2021/06/18 11:02:39;;;;;;;6.68;3.65;;;;;;;37.31;22.58;96035.16;5045244;28;20112;-79
2021/06/18 11:05:29;;;;;;;6.80;5.55;;;;;;;38.37;21.32;96031.81;5052901;28;20033;-80
2021/06/18 11:08:28;;;;;;;5.65;3.63;;;;;;;39.36;19.29;96027.75;5051926;28;20047;-80
2021/06/18 11:10:58;;;;;;;7.70;4.03;;;;;;;39.29;19.49;96033.84;5029968;28;20049;-81
2021/06/18 11:13:24;;;;;;;7.22;5.63;;;;;;;39.59;18.69;96031.53;5049500;28;20025;-80
2021/06/18 11:15:50;;;;;;;4.20;3.33;;;;;;;39.97;19.29;96024.69;5036209;28;20120;-80
2021/06/18 11:18:31;;;;;;;5.13;3.00;;;;;;;37.44;20.72;96028.59;5032224;28;20100;-80
2021/06/18 11:20:59;;;;;;;4.75;3.15;;;;;;;38.25;20.12;96018.81;5050491;28;20234;-80
2021/06/18 11:23:35;;;;;;;5.80;3.70;;;;;;;38.12;21.56;96015.28;5048059;28;20513;-80
2021/06/18 11:26:05;;;;;;;4.18;3.58;;;;;;;37.44;22.61;96017.63;5050952;28;20047;-80
2021/06/18 11:28:36;;;;;;;6.63;3.15;;;;;;;38.97;18.94;96015.59;5047110;28;20032;-81
2021/06/18 11:31:13;;;;;;;4.80;3.08;;;;;;;39.20;20.13;96013.09;5042348;28;20033;-80
2021/06/18 11:33:44;;;;;;;4.35;3.28;;;;;;;39.25;19.25;96005.41;5069236;28;20547;-81
2021/06/18 11:36:17;;;;;;;8.63;5.28;;;;;;;40.04;19.15;96000.09;5053507;28;20071;-80
2021/06/18 11:38:45;;;;;;;4.93;3.40;;;;;;;38.71;20.71;96007.72;5046280;28;20033;-82
2021/06/18 11:41:15;;;;;;;5.35;3.45;;;;;;;37.66;22.35;96003.53;5046899;28;20029;-82